Time;durP1;ratioP1;P1;durP2;ratioP2;P2;SDS_P1;SDS_P2;PMS_P1;PMS_P2;Temp;Humidity;BMP_temperature;BMP_pressure;BME280_temperature;BME280_humidity;BME280_pressure;Samples;Min_cycle;Max_cycle;Signal;HPM_P1;HPM_P2
2020/12/10 00:02:28;;;;;;;15.43;3.33;;;17.20;57.00;;;;;;5020312;28;20219;-57
2020/12/10 00:04:55;;;;;;;3.50;3.20;;;17.20;57.00;;;;;;5027150;28;20219;-57
2020/12/10 00:07:23;;;;;;;3.80;3.20;;;17.10;56.90;;;;;;5019079;28;20227;-57
2020/12/10 00:09:50;;;;;;;3.90;3.50;;;17.10;57.00;;;;;;5026100;28;20592;-55
2020/12/10 00:12:17;;;;;;;4.57;3.27;;;17.10;57.00;;;;;;5026468;28;20318;-55
2020/12/10 00:14:44;;;;;;;4.30;3.40;;;17.10;57.00;;;;;;5021480;28;21016;-56
2020/12/10 00:17:11;;;;;;;4.23;3.43;;;17.10;57.00;;;;;;5028031;28;20218;-57
2020/12/10 00:19:39;;;;;;;5.50;3.60;;;17.10;57.10;;;;;;5018042;28;20458;-56
2020/12/10 00:22:07;;;;;;;4.57;3.63;;;17.10;57.10;;;;;;5010796;28;20227;-56
2020/12/10 00:24:33;;;;;;;10.07;3.50;;;17.00;57.10;;;;;;4998202;28;20220;-57
2020/12/10 00:27:00;;;;;;;5.70;3.70;;;17.10;57.10;;;;;;5008669;28;20230;-57
2020/12/10 00:29:26;;;;;;;3.73;3.40;;;17.00;57.00;;;;;;4998157;28;21209;-55
2020/12/10 00:31:53;;;;;;;3.67;3.37;;;17.00;57.10;;;;;;5007927;28;20232;-56
2020/12/10 00:34:19;;;;;;;3.57;3.23;;;17.00;57.10;;;;;;5006969;28;20241;-56
2020/12/10 00:36:45;;;;;;;4.23;3.50;;;17.00;57.10;;;;;;5011345;28;20234;-56
2020/12/10 00:39:12;;;;;;;4.03;3.63;;;17.00;57.10;;;;;;5009329;28;20237;-56
2020/12/10 00:41:38;;;;;;;6.37;3.70;;;17.00;57.10;;;;;;5026037;28;20238;-57
2020/12/10 00:44:05;;;;;;;3.53;3.23;;;17.00;57.20;;;;;;5018529;28;20234;-56
2020/12/10 00:46:31;;;;;;;4.40;3.50;;;17.00;57.10;;;;;;5027211;28;20222;-56
2020/12/10 00:48:58;;;;;;;4.10;3.70;;;16.90;57.00;;;;;;5018670;28;20242;-56
2020/12/10 00:51:24;;;;;;;3.67;3.37;;;17.00;57.10;;;;;;5022316;28;20238;-55
2020/12/10 00:53:51;;;;;;;4.33;3.70;;;16.90;57.10;;;;;;5006191;28;20228;-55
2020/12/10 00:56:17;;;;;;;5.37;3.67;;;17.00;57.20;;;;;;4996610;28;20385;-55
2020/12/10 00:58:46;;;;;;;5.23;3.40;;;16.90;57.10;;;;;;5006304;28;20227;-57
2020/12/10 01:01:13;;;;;;;3.73;3.43;;;16.90;57.10;;;;;;5006452;28;20238;-57
2020/12/10 01:03:39;;;;;;;4.10;3.70;;;16.90;57.10;;;;;;5009408;28;20246;-56
2020/12/10 01:06:11;;;;;;;4.37;3.60;;;16.90;57.00;;;;;;5004259;28;20725;-56
2020/12/10 01:08:38;;;;;;;6.47;3.97;;;16.90;57.10;;;;;;5006184;28;20235;-55
2020/12/10 01:11:04;;;;;;;4.53;3.70;;;16.90;57.10;;;;;;5012237;28;20221;-56
2020/12/10 01:13:30;;;;;;;4.17;3.57;;;16.90;57.10;;;;;;5025518;28;20227;-56
2020/12/10 01:15:57;;;;;;;3.70;3.40;;;16.80;57.10;;;;;;5018539;28;20225;-57
2020/12/10 01:18:23;;;;;;;5.23;3.90;;;16.80;56.90;;;;;;5023878;28;20218;-56
2020/12/10 01:20:49;;;;;;;3.80;3.50;;;16.80;57.10;;;;;;5017795;28;20211;-57
2020/12/10 01:23:15;;;;;;;4.53;4.13;;;16.80;57.00;;;;;;5025827;28;20729;-56
2020/12/10 01:25:42;;;;;;;3.97;3.57;;;16.80;57.00;;;;;;5018106;28;20312;-55
2020/12/10 01:28:08;;;;;;;3.57;3.27;;;16.80;56.90;;;;;;5026251;28;20233;-55
2020/12/10 01:30:34;;;;;;;3.90;3.50;;;16.80;56.90;;;;;;5021591;28;20219;-55
2020/12/10 01:33:02;;;;;;;3.57;3.27;;;16.80;56.90;;;;;;5024708;28;20306;-55
2020/12/10 01:35:28;;;;;;;4.37;3.73;;;16.80;56.90;;;;;;5026257;28;20230;-55
2020/12/10 01:37:55;;;;;;;4.20;3.80;;;16.80;56.90;;;;;;5016487;28;20214;-56
2020/12/10 01:40:21;;;;;;;4.00;3.53;;;16.70;56.80;;;;;;5025435;28;20227;-56
2020/12/10 01:42:47;;;;;;;4.03;3.60;;;16.80;56.90;;;;;;5018578;28;20238;-57
2020/12/10 01:45:14;;;;;;;5.10;4.03;;;16.80;56.80;;;;;;5025162;28;20782;-54
2020/12/10 01:47:42;;;;;;;4.47;3.83;;;16.70;56.70;;;;;;5018312;28;20219;-57
2020/12/10 01:50:09;;;;;;;4.30;3.77;;;16.70;56.80;;;;;;5023972;28;20228;-59
2020/12/10 01:52:36;;;;;;;4.13;3.73;;;16.70;56.80;;;;;;5019261;28;20222;-55
2020/12/10 01:55:03;;;;;;;4.10;3.70;;;16.70;56.80;;;;;;5023990;28;20250;-57
2020/12/10 01:57:29;;;;;;;4.87;4.30;;;16.70;56.80;;;;;;5016713;28;20226;-57
2020/12/10 01:59:56;;;;;;;3.80;3.40;;;16.70;56.80;;;;;;5025154;28;20717;-57
2020/12/10 02:02:23;;;;;;;5.00;3.60;;;16.70;56.80;;;;;;4997646;28;20481;-57
2020/12/10 02:04:49;;;;;;;4.03;3.63;;;16.70;56.70;;;;;;5024192;28;20269;-55
2020/12/10 02:07:15;;;;;;;4.90;3.70;;;16.70;56.80;;;;;;5017361;28;20257;-56
2020/12/10 02:09:42;;;;;;;4.00;3.60;;;16.70;56.70;;;;;;5025491;28;20226;-55
2020/12/10 02:12:09;;;;;;;3.80;3.50;;;16.70;56.80;;;;;;5024727;28;20236;-57
2020/12/10 02:14:37;;;;;;;4.30;3.90;;;16.70;57.30;;;;;;5008800;28;20215;-55
2020/12/10 02:17:06;;;;;;;4.00;3.57;;;16.60;56.70;;;;;;5025126;28;20233;-55
2020/12/10 02:19:33;;;;;;;4.23;3.80;;;16.70;56.70;;;;;;5018326;28;20698;-56
2020/12/10 02:21:59;;;;;;;3.90;3.50;;;16.60;56.60;;;;;;5024573;28;20296;-56
2020/12/10 02:24:26;;;;;;;4.07;3.70;;;16.60;56.70;;;;;;5017487;28;20227;-57
2020/12/10 02:26:52;;;;;;;4.10;3.70;;;16.60;56.70;;;;;;5025525;28;20219;-56
2020/12/10 02:29:19;;;;;;;3.67;3.37;;;16.60;56.60;;;;;;5018038;28;20235;-56
2020/12/10 02:31:47;;;;;;;3.50;3.20;;;16.60;56.60;;;;;;5023910;28;20223;-56
2020/12/10 02:34:13;;;;;;;3.90;3.23;;;16.60;56.60;;;;;;5016018;28;20579;-55
2020/12/10 02:36:42;;;;;;;4.83;4.27;;;16.60;56.50;;;;;;5022151;28;20227;-56
2020/12/10 02:39:08;;;;;;;4.13;3.73;;;16.60;56.60;;;;;;5015583;28;20227;-56
2020/12/10 02:41:36;;;;;;;3.47;3.17;;;16.60;56.60;;;;;;5024290;28;20231;-55
2020/12/10 02:44:03;;;;;;;3.60;3.30;;;16.50;56.50;;;;;;5008823;28;20227;-55
2020/12/10 02:46:30;;;;;;;3.57;3.23;;;16.50;56.50;;;;;;5016677;28;20250;-54
2020/12/10 02:48:57;;;;;;;4.03;3.40;;;16.60;56.50;;;;;;5017301;28;20226;-55
2020/12/10 02:51:23;;;;;;;3.63;3.33;;;16.60;57.10;;;;;;5027285;28;20238;-55
2020/12/10 02:53:49;;;;;;;6.13;3.60;;;16.60;56.60;;;;;;5026339;28;20277;-57
2020/12/10 02:56:21;;;;;;;4.00;3.60;;;16.50;56.50;;;;;;5020882;28;20225;-55
2020/12/10 02:58:47;;;;;;;4.27;3.63;;;16.50;56.50;;;;;;5026590;28;20244;-55
2020/12/10 03:01:13;;;;;;;4.43;3.10;;;16.50;56.40;;;;;;5019714;28;20249;-55
2020/12/10 03:03:39;;;;;;;4.57;3.17;;;16.50;56.40;;;;;;5029787;28;20222;-54
2020/12/10 03:06:07;;;;;;;3.80;3.43;;;16.50;56.40;;;;;;5020339;28;20229;-57
2020/12/10 03:08:35;;;;;;;3.53;3.10;;;16.50;56.40;;;;;;5011840;28;20227;-56
2020/12/10 03:11:02;;;;;;;4.30;3.90;;;16.40;56.40;;;;;;5005867;28;20218;-57
2020/12/10 03:13:28;;;;;;;3.60;3.30;;;16.50;56.30;;;;;;5029041;28;20230;-55
2020/12/10 03:15:55;;;;;;;3.87;3.47;;;16.50;56.90;;;;;;5020218;28;20225;-56
2020/12/10 03:18:21;;;;;;;3.63;3.33;;;16.40;56.30;;;;;;5026893;28;20237;-57
2020/12/10 03:20:48;;;;;;;4.20;3.30;;;16.50;56.30;;;;;;5021098;28;20573;-55
2020/12/10 03:23:14;;;;;;;4.70;3.00;;;16.40;56.30;;;;;;5027323;28;20230;-56
2020/12/10 03:25:40;;;;;;;3.73;3.23;;;16.40;56.30;;;;;;5019573;28;21806;-55
2020/12/10 03:28:07;;;;;;;4.03;3.60;;;16.40;56.30;;;;;;5028583;28;20233;-55
2020/12/10 03:30:33;;;;;;;5.47;4.00;;;16.40;56.20;;;;;;5027294;28;20211;-56
2020/12/10 03:33:00;;;;;;;3.80;3.30;;;16.40;56.30;;;;;;5023609;28;20250;-57
2020/12/10 03:35:26;;;;;;;3.53;3.23;;;16.40;56.20;;;;;;5028435;28;20223;-57
2020/12/10 03:37:52;;;;;;;3.87;3.30;;;16.40;56.20;;;;;;5019990;28;20251;-57
2020/12/10 03:40:19;;;;;;;3.43;3.07;;;16.40;56.30;;;;;;5027752;28;20238;-56
2020/12/10 03:42:45;;;;;;;5.57;3.60;;;16.40;56.20;;;;;;5019625;28;20218;-56
2020/12/10 03:45:11;;;;;;;3.13;2.83;;;16.40;56.10;;;;;;5028008;28;21044;-55
2020/12/10 03:47:38;;;;;;;3.80;3.00;;;16.40;56.20;;;;;;5011050;28;20601;-57
2020/12/10 03:50:05;;;;;;;3.53;3.17;;;16.30;56.10;;;;;;5027476;28;20230;-55
2020/12/10 03:52:31;;;;;;;4.00;3.07;;;16.40;56.10;;;;;;5020289;28;20218;-55
2020/12/10 03:54:57;;;;;;;3.70;3.30;;;16.30;56.10;;;;;;5026527;28;20830;-56
2020/12/10 03:57:23;;;;;;;3.83;3.43;;;16.30;56.10;;;;;;5021141;28;20630;-54
2020/12/10 03:59:50;;;;;;;4.33;3.90;;;16.30;56.10;;;;;;5026136;28;20227;-57
2020/12/10 04:02:16;;;;;;;3.37;3.07;;;16.30;56.10;;;;;;5017557;28;20230;-55
2020/12/10 04:04:42;;;;;;;3.80;3.00;;;16.30;56.10;;;;;;5028415;28;20226;-54
2020/12/10 04:07:08;;;;;;;3.83;3.20;;;16.30;56.00;;;;;;5019050;28;20679;-56
2020/12/10 04:09:36;;;;;;;3.73;3.40;;;16.20;56.00;;;;;;5026296;28;20237;-56
2020/12/10 04:12:02;;;;;;;4.63;2.90;;;16.20;56.00;;;;;;5026345;28;20226;-56
2020/12/10 04:14:29;;;;;;;3.57;2.93;;;16.30;56.10;;;;;;5020232;28;20243;-56
2020/12/10 04:16:57;;;;;;;3.30;3.00;;;16.20;56.00;;;;;;5025852;28;20219;-56
2020/12/10 04:19:23;;;;;;;4.30;3.40;;;16.20;56.00;;;;;;5019318;28;20237;-55
2020/12/10 04:21:50;;;;;;;3.73;3.13;;;16.30;56.00;;;;;;5027688;28;20813;-54
2020/12/10 04:24:16;;;;;;;3.60;3.13;;;16.20;55.90;;;;;;5017849;28;20226;-55
2020/12/10 04:26:42;;;;;;;3.50;3.20;;;16.20;55.90;;;;;;5026133;28;20242;-57
2020/12/10 04:29:13;;;;;;;3.27;2.97;;;16.20;55.90;;;;;;5018093;28;20223;-56
2020/12/10 04:31:40;;;;;;;4.00;2.93;;;16.20;55.90;;;;;;5026290;28;20239;-56
2020/12/10 04:34:08;;;;;;;3.27;2.70;;;16.20;56.50;;;;;;5017770;28;20223;-55
2020/12/10 04:36:34;;;;;;;4.33;3.60;;;16.20;55.90;;;;;;5023343;28;20249;-56
2020/12/10 04:39:03;;;;;;;3.37;3.07;;;16.20;55.80;;;;;;5020809;28;20230;-56
2020/12/10 04:41:32;;;;;;;3.50;3.10;;;16.20;55.80;;;;;;5023203;28;20717;-55
2020/12/10 04:43:58;;;;;;;3.10;2.80;;;16.20;55.80;;;;;;5018235;28;20234;-54
2020/12/10 04:46:25;;;;;;;3.53;2.80;;;16.20;55.80;;;;;;5024918;28;20868;-55
2020/12/10 04:48:55;;;;;;;3.40;3.10;;;16.20;55.80;;;;;;5022059;28;20910;-55
2020/12/10 04:51:22;;;;;;;3.77;3.13;;;16.20;55.70;;;;;;5025488;28;20340;-57
2020/12/10 04:53:50;;;;;;;3.53;2.93;;;16.20;55.70;;;;;;5026990;28;20223;-56
2020/12/10 04:56:17;;;;;;;3.23;2.90;;;16.20;55.70;;;;;;5019062;28;20229;-56
2020/12/10 04:58:44;;;;;;;3.23;2.93;;;16.10;55.60;;;;;;5025520;28;20702;-55
2020/12/10 05:01:13;;;;;;;3.63;3.20;;;16.20;55.60;;;;;;5016674;28;20249;-55
2020/12/10 05:03:45;;;;;;;3.00;2.57;;;16.10;55.60;;;;;;5026324;28;20230;-56
2020/12/10 05:06:14;;;;;;;3.10;2.80;;;16.10;55.50;;;;;;5015524;28;20234;-56
2020/12/10 05:08:41;;;;;;;3.03;2.80;;;16.10;55.50;;;;;;5025777;28;20579;-55
2020/12/10 05:11:08;;;;;;;3.00;2.70;;;16.10;55.40;;;;;;5017890;28;20226;-55
2020/12/10 05:13:35;;;;;;;3.20;2.90;;;16.10;55.40;;;;;;5025170;28;20225;-56
2020/12/10 05:16:02;;;;;;;5.03;2.77;;;16.10;55.30;;;;;;5018819;28;20736;-55
2020/12/10 05:18:29;;;;;;;4.40;3.10;;;16.10;55.30;;;;;;5023746;28;20262;-56
2020/12/10 05:20:58;;;;;;;4.23;3.20;;;16.10;55.30;;;;;;5016509;28;20214;-57
2020/12/10 05:23:36;;;;;;;3.70;2.60;;;16.10;55.30;;;;;;5024740;28;20222;-54
2020/12/10 05:26:04;;;;;;;4.80;2.97;;;16.10;55.30;;;;;;5018706;28;20690;-54
2020/12/10 05:28:47;;;;;;;4.13;3.23;;;16.10;55.20;;;;;;5024651;28;20367;-55
2020/12/10 05:31:18;;;;;;;3.90;3.00;;;16.10;55.20;;;;;;5016533;28;20239;-56
2020/12/10 05:33:55;;;;;;;3.73;2.80;;;16.10;55.30;;;;;;5022465;28;20572;-56
2020/12/10 05:36:23;;;;;;;4.17;3.10;;;16.10;55.20;;;;;;5016170;28;20226;-56
2020/12/10 05:38:55;;;;;;;6.60;3.00;;;16.10;55.20;;;;;;5025061;28;20233;-55
2020/12/10 05:41:23;;;;;;;3.50;3.10;;;16.10;55.20;;;;;;5012245;28;20882;-55
2020/12/10 05:43:49;;;;;;;4.57;3.27;;;16.10;55.20;;;;;;5023366;28;20233;-55
2020/12/10 05:46:23;;;;;;;4.93;3.00;;;16.10;55.20;;;;;;5017209;28;20234;-55
2020/12/10 05:48:50;;;;;;;4.83;3.13;;;16.10;55.10;;;;;;5023659;28;20710;-56
2020/12/10 05:51:23;;;;;;;3.63;2.90;;;16.00;55.10;;;;;;5023919;28;20663;-55
2020/12/10 05:53:50;;;;;;;4.50;3.33;;;16.10;55.10;;;;;;5018312;28;20230;-55
2020/12/10 05:56:17;;;;;;;6.27;3.03;;;16.00;55.00;;;;;;5024660;28;20705;-55
2020/12/10 05:58:52;;;;;;;3.90;2.27;;;16.00;55.00;;;;;;5016919;28;20611;-55
2020/12/10 06:01:34;;;;;;;3.60;2.97;;;16.00;55.00;;;;;;5024906;28;20606;-56
2020/12/10 06:04:02;;;;;;;3.37;3.07;;;16.00;55.00;;;;;;5017208;28;20230;-55
2020/12/10 06:06:30;;;;;;;4.63;2.93;;;16.00;55.20;;;;;;5024559;28;20230;-56
2020/12/10 06:09:08;;;;;;;3.30;2.80;;;16.00;55.10;;;;;;5015659;28;20227;-54
2020/12/10 06:11:34;;;;;;;3.53;3.23;;;16.00;55.10;;;;;;5023909;28;20698;-56
2020/12/10 06:14:04;;;;;;;5.47;4.00;;;16.00;55.00;;;;;;5015622;28;20223;-55
2020/12/10 06:16:32;;;;;;;5.67;3.73;;;16.00;55.00;;;;;;5026009;28;20223;-55
2020/12/10 06:19:04;;;;;;;7.00;4.17;;;16.00;55.00;;;;;;5015320;28;20223;-55
2020/12/10 06:21:37;;;;;;;8.87;4.37;;;16.00;54.90;;;;;;5021891;28;20220;-56
2020/12/10 06:24:25;;;;;;;7.77;4.17;;;16.00;54.90;;;;;;5015486;28;20678;-54
2020/12/10 06:26:52;;;;;;;10.57;4.40;;;16.00;54.90;;;;;;5028366;28;20751;-56
2020/12/10 06:29:20;;;;;;;8.03;3.93;;;16.00;54.80;;;;;;5018712;28;20560;-56
2020/12/10 06:32:06;;;;;;;6.43;4.07;;;16.00;54.80;;;;;;5026969;28;20227;-55
2020/12/10 06:34:44;;;;;;;7.20;4.13;;;16.00;54.70;;;;;;5019654;28;20222;-55
2020/12/10 06:37:29;;;;;;;7.10;4.10;;;16.00;54.70;;;;;;5023138;28;20318;-55
2020/12/10 06:40:04;;;;;;;7.63;4.33;;;16.00;54.60;;;;;;5018368;28;20726;-55
2020/12/10 06:42:46;;;;;;;7.00;3.60;;;16.00;54.70;;;;;;5025650;28;20234;-54
2020/12/10 06:45:36;;;;;;;9.53;4.00;;;15.90;54.70;;;;;;5018052;28;20545;-55
2020/12/10 06:48:11;;;;;;;5.70;3.83;;;15.90;54.50;;;;;;5025140;28;20589;-54
2020/12/10 06:50:41;;;;;;;5.67;3.80;;;15.90;54.50;;;;;;5019775;28;20230;-55
2020/12/10 06:53:21;;;;;;;5.73;3.43;;;15.90;54.40;;;;;;5023952;28;20238;-54
2020/12/10 06:55:58;;;;;;;6.17;3.40;;;15.90;54.40;;;;;;5016373;28;20354;-55
2020/12/10 06:58:34;;;;;;;4.97;3.60;;;15.90;54.40;;;;;;5026557;28;20234;-56
2020/12/10 07:01:19;;;;;;;7.20;4.27;;;15.90;54.40;;;;;;5021890;28;20890;-54
2020/12/10 07:03:45;;;;;;;4.40;3.37;;;15.90;54.40;;;;;;5024410;28;20274;-54
2020/12/10 07:06:21;;;;;;;7.53;3.60;;;15.90;54.30;;;;;;5022271;28;20227;-56
2020/12/10 07:09:03;;;;;;;4.37;3.30;;;15.90;54.30;;;;;;5026807;28;20363;-55
2020/12/10 07:11:38;;;;;;;4.13;3.23;;;15.90;54.30;;;;;;5019769;28;21971;-56
2020/12/10 07:14:28;;;;;;;5.10;3.30;;;15.90;54.30;;;;;;5027037;28;20217;-55
2020/12/10 07:16:55;;;;;;;4.37;3.33;;;15.90;54.20;;;;;;5016687;28;20223;-55
2020/12/10 07:19:22;;;;;;;6.23;3.57;;;15.90;54.20;;;;;;5026130;28;20273;-56
2020/12/10 07:21:49;;;;;;;6.13;3.60;;;15.80;54.20;;;;;;5027281;28;20211;-59
2020/12/10 07:24:15;;;;;;;5.60;3.33;;;15.80;54.20;;;;;;5030796;28;20214;-58
2020/12/10 07:26:47;;;;;;;4.03;3.20;;;15.90;54.20;;;;;;5028705;28;20215;-58
2020/12/10 07:29:13;;;;;;;5.07;4.00;;;15.80;54.10;;;;;;5031575;28;20222;-58
2020/12/10 07:31:42;;;;;;;3.77;3.23;;;15.90;54.10;;;;;;5028545;28;20230;-59
2020/12/10 07:34:11;;;;;;;7.37;3.60;;;15.80;54.00;;;;;;5031366;28;20277;-58
2020/12/10 07:36:51;;;;;;;4.17;3.27;;;15.80;54.00;;;;;;5027964;28;20579;-58
2020/12/10 07:39:30;;;;;;;3.77;3.00;;;15.90;54.00;;;;;;5030707;28;20967;-58
2020/12/10 07:41:58;;;;;;;5.23;3.63;;;15.90;54.00;;;;;;5027180;28;20221;-59
2020/12/10 07:44:29;;;;;;;5.00;3.23;;;15.90;54.00;;;;;;5029926;28;21481;-58
2020/12/10 07:47:15;;;;;;;55.13;14.53;;;15.80;53.90;;;;;;5030147;28;20234;-59
2020/12/10 07:49:41;;;;;;;64.60;15.40;;;15.80;56.50;;;;;;5028526;28;20234;-58
2020/12/10 07:52:10;;;;;;;41.87;11.93;;;15.80;57.10;;;;;;5023013;28;20403;-58
2020/12/10 07:54:46;;;;;;;32.20;9.43;;;15.80;56.30;;;;;;5028814;28;20223;-58
2020/12/10 07:57:49;;;;;;;27.10;8.67;;;15.80;55.80;;;;;;5027587;28;20230;-58
2020/12/10 08:00:18;;;;;;;27.87;8.97;;;15.80;55.50;;;;;;5021405;28;21676;-56
2020/12/10 08:03:02;;;;;;;19.90;7.87;;;15.80;55.70;;;;;;5018671;28;20316;-58
2020/12/10 08:05:28;;;;;;;28.80;8.17;;;16.00;56.20;;;;;;5024587;28;20601;-57
2020/12/10 08:07:56;;;;;;;21.47;7.80;;;16.10;56.30;;;;;;5019982;28;20595;-59
2020/12/10 08:10:27;;;;;;;21.13;6.90;;;16.30;56.20;;;;;;5026516;28;20318;-58
2020/12/10 08:13:07;;;;;;;18.83;7.23;;;16.30;56.20;;;;;;5022519;28;20219;-57
2020/12/10 08:15:33;;;;;;;17.73;6.70;;;16.40;56.50;;;;;;5025096;28;20214;-57
2020/12/10 08:18:04;;;;;;;14.50;6.43;;;16.40;56.50;;;;;;5022646;28;20226;-57
2020/12/10 08:20:48;;;;;;;16.07;6.83;;;16.50;56.30;;;;;;5027605;28;20227;-58
2020/12/10 08:23:16;;;;;;;11.23;6.20;;;16.50;56.10;;;;;;5020521;28;20225;-57
2020/12/10 08:25:45;;;;;;;18.00;6.50;;;16.60;56.00;;;;;;5026117;28;20238;-59
2020/12/10 08:28:12;;;;;;;13.97;5.60;;;16.70;55.80;;;;;;5023622;28;20309;-58
2020/12/10 08:30:54;;;;;;;10.27;6.03;;;16.70;56.00;;;;;;5029375;28;20226;-59
2020/12/10 08:33:21;;;;;;;12.53;6.63;;;16.80;55.60;;;;;;5024561;28;20245;-60
2020/12/10 08:35:47;;;;;;;9.87;6.20;;;16.80;55.50;;;;;;5026240;28;20233;-58
2020/12/10 08:38:15;;;;;;;12.17;5.50;;;16.90;55.30;;;;;;5020755;28;20230;-58
2020/12/10 08:40:41;;;;;;;9.80;5.33;;;16.90;54.90;;;;;;5018903;28;20317;-57
2020/12/10 08:43:09;;;;;;;7.57;5.27;;;17.00;55.00;;;;;;5026729;28;20223;-57
2020/12/10 08:45:43;;;;;;;11.47;5.43;;;17.00;54.70;;;;;;5019543;28;20302;-57
2020/12/10 08:48:14;;;;;;;9.57;5.30;;;17.00;54.60;;;;;;5030120;28;20316;-57
2020/12/10 08:50:54;;;;;;;8.13;4.97;;;17.10;54.50;;;;;;5019454;28;20901;-57
2020/12/10 08:53:22;;;;;;;8.77;5.57;;;17.10;55.00;;;;;;5027100;28;20578;-56
2020/12/10 08:55:54;;;;;;;7.37;4.63;;;17.20;54.50;;;;;;5019859;28;20733;-56
2020/12/10 08:58:29;;;;;;;7.87;4.97;;;17.20;54.40;;;;;;5027539;28;20548;-58
2020/12/10 09:00:59;;;;;;;11.70;4.80;;;17.30;54.40;;;;;;5022324;28;20302;-57
2020/12/10 09:03:25;;;;;;;6.10;4.03;;;17.50;53.70;;;;;;5022085;28;20241;-57
2020/12/10 09:05:52;;;;;;;6.07;4.00;;;18.00;52.30;;;;;;5019520;28;20241;-57
2020/12/10 09:08:19;;;;;;;18.07;3.80;;;18.50;51.20;;;;;;5027026;28;20899;-58
2020/12/10 09:10:45;;;;;;;6.20;4.37;;;18.90;50.30;;;;;;5021469;28;20308;-58
2020/12/10 09:13:12;;;;;;;5.50;3.50;;;19.10;49.70;;;;;;5025361;28;20226;-57
2020/12/10 09:15:42;;;;;;;6.03;4.13;;;19.50;49.20;;;;;;5017875;28;20711;-57
2020/12/10 09:18:10;;;;;;;5.47;3.40;;;19.70;48.90;;;;;;5027270;28;20254;-58
2020/12/10 09:20:37;;;;;;;4.40;3.10;;;19.90;48.10;;;;;;5021826;28;20223;-57
2020/12/10 09:23:03;;;;;;;5.33;3.40;;;19.90;47.60;;;;;;5020644;28;21600;-57
2020/12/10 09:25:30;;;;;;;5.30;3.67;;;20.10;47.50;;;;;;5002020;28;20240;-58
2020/12/10 09:27:56;;;;;;;3.90;2.87;;;20.20;47.50;;;;;;5017491;28;20242;-57
2020/12/10 09:30:23;;;;;;;5.47;3.40;;;20.40;47.70;;;;;;5008853;28;20242;-58
2020/12/10 09:32:50;;;;;;;4.20;3.47;;;20.50;47.10;;;;;;5019491;28;20241;-58
2020/12/10 09:35:16;;;;;;;4.33;3.73;;;20.70;47.00;;;;;;5025901;28;20219;-57
2020/12/10 09:37:43;;;;;;;5.13;3.57;;;20.80;46.60;;;;;;5019761;28;20249;-58
2020/12/10 09:40:11;;;;;;;3.97;3.07;;;20.80;46.40;;;;;;5027881;28;20227;-59
2020/12/10 09:42:39;;;;;;;4.70;3.10;;;20.90;46.60;;;;;;5020682;28;20237;-56
2020/12/10 09:45:11;;;;;;;4.23;3.10;;;21.00;46.20;;;;;;5025385;28;20227;-58
2020/12/10 09:47:40;;;;;;;4.93;3.20;;;21.10;46.10;;;;;;5019310;28;20234;-58
2020/12/10 09:50:07;;;;;;;4.23;2.93;;;21.20;46.60;;;;;;5026742;28;20230;-59
2020/12/10 09:52:38;;;;;;;3.13;2.67;;;21.30;45.60;;;;;;5021314;28;20222;-58
2020/12/10 09:55:36;;;;;;;6.67;2.80;;;21.40;46.00;;;;;;5012745;28;20234;-58
2020/12/10 09:58:02;;;;;;;3.30;2.57;;;21.40;45.60;;;;;;5000260;28;20592;-58
2020/12/10 10:00:29;;;;;;;5.53;2.67;;;21.50;45.50;;;;;;5004602;28;20235;-58
2020/12/10 10:02:55;;;;;;;3.47;2.60;;;21.60;45.40;;;;;;5009603;28;20226;-59
2020/12/10 10:05:22;;;;;;;3.90;2.27;;;21.70;44.90;;;;;;5014909;28;20313;-58
2020/12/10 10:07:48;;;;;;;3.27;2.60;;;21.80;45.20;;;;;;5016432;28;20902;-59
2020/12/10 10:10:15;;;;;;;3.93;2.50;;;21.90;44.70;;;;;;5025705;28;20238;-59
2020/12/10 10:12:41;;;;;;;2.57;2.37;;;21.90;44.50;;;;;;5017549;28;20226;-58
2020/12/10 10:15:07;;;;;;;4.17;2.50;;;22.00;44.80;;;;;;5026215;28;20226;-57
2020/12/10 10:17:33;;;;;;;3.47;2.57;;;22.10;44.50;;;;;;5015970;28;20239;-57
2020/12/10 10:20:00;;;;;;;2.63;2.40;;;22.20;44.20;;;;;;5013629;28;20886;-59
2020/12/10 10:22:26;;;;;;;2.60;2.10;;;22.20;44.20;;;;;;5024229;28;20238;-58
2020/12/10 10:24:54;;;;;;;3.33;2.23;;;22.30;43.80;;;;;;5014497;28;20231;-58
2020/12/10 10:27:20;;;;;;;3.37;2.23;;;22.30;44.40;;;;;;5013877;28;20229;-59
2020/12/10 10:29:47;;;;;;;2.60;2.40;;;22.40;44.20;;;;;;5018773;28;20230;-59
2020/12/10 10:32:13;;;;;;;2.87;2.57;;;22.40;44.50;;;;;;5024677;28;20226;-59
2020/12/10 10:34:39;;;;;;;4.17;2.40;;;22.50;44.80;;;;;;5019513;28;20215;-59
2020/12/10 10:37:06;;;;;;;2.70;2.50;;;22.60;44.60;;;;;;5026415;28;20223;-59
2020/12/10 10:39:32;;;;;;;4.20;2.60;;;22.70;44.10;;;;;;5020496;28;20233;-58
2020/12/10 10:41:58;;;;;;;2.60;2.40;;;22.70;44.50;;;;;;5024804;28;20249;-58
2020/12/10 10:44:25;;;;;;;2.63;2.43;;;22.80;43.90;;;;;;4999168;28;20969;-59
2020/12/10 10:46:53;;;;;;;2.57;2.20;;;22.90;43.40;;;;;;5006842;28;20264;-59
2020/12/10 10:49:19;;;;;;;2.80;2.23;;;22.90;43.20;;;;;;4998370;28;20662;-59
2020/12/10 10:51:49;;;;;;;2.47;2.27;;;23.00;43.40;;;;;;5006459;28;20223;-59
2020/12/10 10:54:16;;;;;;;2.53;2.33;;;23.10;43.10;;;;;;5000570;28;20235;-57
2020/12/10 10:56:42;;;;;;;2.80;2.50;;;23.20;42.90;;;;;;5004516;28;20234;-58
2020/12/10 10:59:09;;;;;;;2.60;2.27;;;23.20;42.80;;;;;;5007261;28;20239;-56
2020/12/10 11:01:35;;;;;;;3.90;2.13;;;23.20;42.70;;;;;;5006952;28;20242;-58
2020/12/10 11:04:02;;;;;;;2.30;2.10;;;23.30;42.80;;;;;;5017221;28;20258;-56
2020/12/10 11:06:28;;;;;;;6.57;2.93;;;23.20;42.20;;;;;;5019544;28;20234;-58
2020/12/10 11:08:55;;;;;;;2.73;2.53;;;22.90;41.80;;;;;;5024166;28;20331;-58
2020/12/10 11:11:23;;;;;;;2.70;2.50;;;22.50;43.20;;;;;;5020739;28;20242;-58
2020/12/10 11:13:50;;;;;;;3.03;2.43;;;22.30;44.20;;;;;;5028820;28;20560;-57
2020/12/10 11:16:17;;;;;;;3.50;2.77;;;22.00;44.00;;;;;;5023987;28;20233;-57
2020/12/10 11:18:44;;;;;;;2.97;2.60;;;21.90;44.20;;;;;;5026437;28;20227;-56
2020/12/10 11:21:11;;;;;;;3.10;2.80;;;21.70;44.30;;;;;;5021941;28;20900;-58
2020/12/10 11:23:38;;;;;;;2.70;2.50;;;21.60;44.50;;;;;;5028374;28;20230;-58
2020/12/10 11:26:05;;;;;;;3.07;2.67;;;21.50;44.60;;;;;;5022460;28;20237;-57
2020/12/10 11:28:32;;;;;;;4.23;3.83;;;21.40;44.70;;;;;;5027528;28;20249;-57
2020/12/10 11:30:58;;;;;;;3.33;3.03;;;21.00;43.70;;;;;;5021027;28;20234;-57
2020/12/10 11:33:25;;;;;;;3.77;3.13;;;21.00;45.50;;;;;;5043143;28;20569;-57
2020/12/10 11:35:52;;;;;;;2.90;2.60;;;21.10;46.70;;;;;;5021021;28;20698;-59
2020/12/10 11:38:19;;;;;;;3.50;3.20;;;21.10;47.00;;;;;;5028308;28;20219;-57
2020/12/10 11:40:46;;;;;;;3.03;2.73;;;21.10;47.30;;;;;;5028338;28;20226;-59
2020/12/10 11:43:12;;;;;;;3.67;3.13;;;21.10;46.80;;;;;;5020260;28;20231;-59
2020/12/10 11:45:44;;;;;;;4.80;3.70;;;21.20;47.10;;;;;;5028485;28;20235;-58
2020/12/10 11:48:11;;;;;;;3.97;3.07;;;21.10;46.90;;;;;;5017055;28;20941;-59
2020/12/10 11:50:38;;;;;;;3.27;2.60;;;21.10;47.00;;;;;;5022094;28;20231;-58
2020/12/10 11:53:05;;;;;;;3.13;2.77;;;21.10;47.70;;;;;;5018053;28;20357;-59
2020/12/10 11:55:32;;;;;;;3.50;3.20;;;21.10;47.90;;;;;;5024627;28;20230;-57
2020/12/10 11:57:58;;;;;;;3.10;2.80;;;21.10;47.10;;;;;;5020399;28;20234;-58
2020/12/10 12:00:24;;;;;;;3.20;2.73;;;21.10;47.00;;;;;;5025882;28;20714;-58
2020/12/10 12:02:51;;;;;;;3.03;2.83;;;21.10;47.70;;;;;;5019875;28;20226;-59
2020/12/10 12:05:19;;;;;;;3.37;3.07;;;21.10;47.20;;;;;;5026225;28;20238;-58
2020/12/10 12:07:47;;;;;;;3.20;2.90;;;21.10;47.60;;;;;;5020679;28;20585;-59
2020/12/10 12:10:15;;;;;;;2.50;2.30;;;21.10;47.40;;;;;;5026521;28;20276;-58
2020/12/10 12:12:42;;;;;;;2.60;2.40;;;21.10;47.30;;;;;;5019037;28;20258;-59
2020/12/10 12:15:08;;;;;;;2.67;2.47;;;21.30;46.30;;;;;;5025866;28;20258;-57
2020/12/10 12:17:35;;;;;;;2.80;2.33;;;21.60;45.70;;;;;;5022260;28;20242;-59
2020/12/10 12:20:04;;;;;;;2.57;2.37;;;21.90;45.10;;;;;;5024521;28;20238;-58
2020/12/10 12:22:31;;;;;;;2.70;2.10;;;22.20;44.70;;;;;;5023769;28;20242;-57
2020/12/10 12:24:57;;;;;;;2.50;2.30;;;22.40;44.20;;;;;;5017178;28;20223;-58
2020/12/10 12:27:23;;;;;;;2.47;2.27;;;22.60;44.10;;;;;;5023539;28;20733;-57
2020/12/10 12:29:49;;;;;;;2.73;2.40;;;22.80;44.20;;;;;;5018958;28;20231;-58
2020/12/10 12:32:16;;;;;;;2.30;2.10;;;22.80;43.10;;;;;;5025246;28;20674;-59
2020/12/10 12:34:42;;;;;;;4.27;2.10;;;23.00;43.20;;;;;;5019230;28;20322;-57
2020/12/10 12:37:10;;;;;;;2.30;2.10;;;23.10;43.10;;;;;;5025137;28;20219;-58
2020/12/10 12:39:36;;;;;;;2.40;2.20;;;23.20;42.80;;;;;;5020042;28;20220;-59
2020/12/10 12:42:05;;;;;;;2.17;1.97;;;23.30;43.00;;;;;;5025235;28;20223;-58
2020/12/10 12:44:33;;;;;;;2.40;2.20;;;23.30;43.10;;;;;;5019041;28;21902;-57
2020/12/10 12:46:59;;;;;;;2.40;2.20;;;23.40;42.90;;;;;;5023291;28;20622;-58
2020/12/10 12:49:26;;;;;;;3.03;1.90;;;23.50;42.60;;;;;;5019051;28;20265;-58
2020/12/10 12:51:54;;;;;;;2.30;2.10;;;23.60;42.50;;;;;;5024560;28;20226;-63
2020/12/10 12:54:21;;;;;;;2.10;1.90;;;23.70;42.40;;;;;;5017027;28;20738;-60